Terminal Aerodrome Forecast
Issued by NWS Tampa Bay Area, FL

Home | Current Version | Previous Version | Text Only | Print | Product List | Glossary On
Versions: 1 2 3 4 5 6 7 8 9 10 11 12
000
FTUS42 KTBW 292339
TAFFMY
TAF
KFMY 292339Z 3000/3024 08007KT P6SM VCTS FEW020 SCT040CB BKN080
      TEMPO 3000/3002 VRB14G22KT 3SM TSRA BKN020CB
     FM300400 VRB03KT P6SM FEW100 SCT250
     FM301400 VRB03KT P6SM SCT020 SCT250
     FM301700 26006KT P6SM VCTS BKN035CB
     FM302100 28008KT P6SM VCTS BKN050CB=

USA.gov is the U.S. government's official web portal to all federal, state and local government web resources and services.